VCBIVOMD

Guest
Details From VCBI - BANDARANAIKE INTL COLOMBO
To VOMD - MADURAI
Flight Number -
Tags generated
Created
Modified
Stats Distance 192 nm / 355 km
Max Altitude 18,700 ft / 5,700 m
Waypoints 5
Social Downloads 0
Likes 0
Share VATSIM

Download

Looking for another format? Having issues loading an existing format? Contact us
Advertisement - Login to hide

Notes

Basic altitude profile: - Ascent Rate: 2500ft/min - Ascent Speed: 250kts - Cruise Altitude: 35000ft - Cruise Speed: 420kts - Descent Rate: 1500ft/min - Descent Speed: 250kts Options: - Use NATs: yes - Use PACOTS: yes - Use low airways: yes - Use high airways: yes

Route

VCBI CJ R461 MDI VOMD

ID Type Via Altitude Latitude Longitude Leg Dist Tot Dist Heading (true) Name
O VCBI APT - 0 ft / 0 m 7.18075˚ 79.88412˚ - 0 nm - BANDARANAIKE INTL COLOMBO
CJ NDB - 16,300 ft / 4,968 m 7.85528˚ 79.43218˚ 48 nm 48 nm 326° / 326° -
DEMON FIX R461 (AWY-LO) 18,700 ft / 5,700 m 8.55690˚ 78.94390˚ 51 nm 99 nm 325° / 325° -
MDI VOR R461 (AWY-LO) 12,500 ft / 3,810 m 9.83108˚ 78.08903˚ 91 nm 191 nm 327° / 326° MADURAI VOR-DME
O VOMD APT - 0 ft / 0 m 9.83557˚ 78.09041˚ 0 nm 191 nm 17° / 17° MADURAI

Altitude Profile

Advertisement - Login to hide

Weather


0- 5 10 15 20 25 30 35+ Temperature / ° C

Clouds and Precipitation
Forecast for 2017-12-14 00:00 UTC. Updated an hour ago

Ground ~20,000 ft ~40,000 ft Winds

VCBI

Details ICAO VCBI (CMB)
Name BANDARANAIKE INTL COLOMBO
Region Sri Lanka
Timezone Asia/Colombo (UTC+5.5)
Stats Elevation 30 ft / 9 m (AMSL)
Location 7.180754° 79.884118°
Runways 1
Magnetic Variation 2.068° W

METAR

VCBI 140010Z 10004KT 7000 NSC 24/23 Q1012 NOSIG

Decode

TAF

Not found

Departure Runways

ID Width Length Bearing (true) Bearing (mag) Surface Threshold Offset Overrun Length
04 148 ft / 45 m 11,018 ft / 3,358 m 37.25° 39.32° Asphalt 0 ft / 0 m 215 ft / 66 m
22 148 ft / 45 m 11,018 ft / 3,358 m 217.25° 219.32° Asphalt 0 ft / 0 m 300 ft / 91 m

VOMD

Details ICAO VOMD (IXM)
Name MADURAI
Region India
Timezone Asia/Kolkata (UTC+5.5)
Stats Elevation 459 ft / 140 m (AMSL)
Location 9.835570° 78.090406°
Runways 2
Magnetic Variation 1.692° W

METAR

VOMD 140000Z 00000KT 4000 HZ SCT018 24/21 Q1013 NOSIG

Decode

TAF

TAF VOMD 131700Z 1318/1424 00000KT 3000 HZ SCT018 BECMG 1400/1401 2000 BR BECMG 1403/1404 07005KT 4000 HZ BECMG 1409/1410 3000 HZ TEMPO 1412/1418 SCT018 FEW025CB BKN080 BECMG 1418/1419 00000KT

Decode

Destination Runways

ID Width Length Bearing (true) Bearing (mag) Surface Threshold Offset Overrun Length
09 148 ft / 45 m 5,993 ft / 1,827 m 86.19° 87.88° Asphalt 0 ft / 0 m 190 ft / 58 m
13 148 ft / 45 m 4,795 ft / 1,462 m 126.57° 128.26° Concrete 0 ft / 0 m 0 ft / 0 m
27 148 ft / 45 m 5,993 ft / 1,827 m 266.19° 267.88° Asphalt 203 ft / 62 m 190 ft / 58 m
31 148 ft / 45 m 4,795 ft / 1,462 m 306.57° 308.26° Concrete 0 ft / 0 m 0 ft / 0 m

Popular Alternatives